sensor_id;sensor_type;location;lat;lon;timestamp;pressure;altitude;pressure_sealevel;temperature;humidity
76285;BME280;65096;50.998;7.098;2023-04-12T00:01:25;100193.06;;;9.21;50.23
76285;BME280;65096;50.998;7.098;2023-04-12T00:03:53;100188.78;;;9.27;51.23
76285;BME280;65096;50.998;7.098;2023-04-12T00:06:19;100187.03;;;9.18;50.01
76285;BME280;65096;50.998;7.098;2023-04-12T00:08:56;100180.19;;;9.16;50.21
76285;BME280;65096;50.998;7.098;2023-04-12T00:11:25;100175.81;;;9.07;52.29
76285;BME280;65096;50.998;7.098;2023-04-12T00:13:53;100176.63;;;8.99;51.60
76285;BME280;65096;50.998;7.098;2023-04-12T00:16:20;100162.06;;;8.99;51.57
76285;BME280;65096;50.998;7.098;2023-04-12T00:18:46;100158.63;;;8.97;51.95
76285;BME280;65096;50.998;7.098;2023-04-12T00:21:13;100155.16;;;8.83;54.77
76285;BME280;65096;50.998;7.098;2023-04-12T00:23:44;100153.25;;;8.51;56.18
76285;BME280;65096;50.998;7.098;2023-04-12T00:26:11;100154.91;;;8.38;57.69
76285;BME280;65096;50.998;7.098;2023-04-12T00:28:39;100149.75;;;8.38;56.98
76285;BME280;65096;50.998;7.098;2023-04-12T00:31:06;100144.63;;;8.43;56.09
76285;BME280;65096;50.998;7.098;2023-04-12T00:33:33;100136.13;;;8.45;57.48
76285;BME280;65096;50.998;7.098;2023-04-12T00:36:00;100127.56;;;8.49;57.73
76285;BME280;65096;50.998;7.098;2023-04-12T00:38:27;100112.97;;;8.41;57.60
76285;BME280;65096;50.998;7.098;2023-04-12T00:40:53;100114.66;;;8.40;58.58
76285;BME280;65096;50.998;7.098;2023-04-12T00:43:20;100106.09;;;8.40;57.65
76285;BME280;65096;50.998;7.098;2023-04-12T00:45:49;100096.69;;;8.39;57.12
76285;BME280;65096;50.998;7.098;2023-04-12T00:48:16;100095.69;;;8.22;60.12
76285;BME280;65096;50.998;7.098;2023-04-12T00:50:43;100093.97;;;8.18;58.16
76285;BME280;65096;50.998;7.098;2023-04-12T00:53:12;100080.19;;;7.99;61.31
76285;BME280;65096;50.998;7.098;2023-04-12T00:55:39;100076.63;;;7.82;60.46
76285;BME280;65096;50.998;7.098;2023-04-12T00:58:07;100068.09;;;7.86;62.16
76285;BME280;65096;50.998;7.098;2023-04-12T01:00:34;100065.59;;;7.97;60.42
76285;BME280;65096;50.998;7.098;2023-04-12T01:03:03;100066.38;;;7.88;60.01
76285;BME280;65096;50.998;7.098;2023-04-12T01:05:32;100062.16;;;7.95;59.26
76285;BME280;65096;50.998;7.098;2023-04-12T01:08:05;100056.19;;;7.96;58.86
76285;BME280;65096;50.998;7.098;2023-04-12T01:10:41;100056.22;;;8.02;59.60
76285;BME280;65096;50.998;7.098;2023-04-12T01:13:26;100052.78;;;7.98;60.96
76285;BME280;65096;50.998;7.098;2023-04-12T01:15:58;100043.28;;;7.87;60.29
76285;BME280;65096;50.998;7.098;2023-04-12T01:18:34;100041.56;;;7.83;61.99
76285;BME280;65096;50.998;7.098;2023-04-12T01:21:07;100033.59;;;7.51;64.32
76285;BME280;65096;50.998;7.098;2023-04-12T01:23:52;100023.34;;;7.51;64.45
76285;BME280;65096;50.998;7.098;2023-04-12T01:26:33;100025.00;;;7.44;65.06
76285;BME280;65096;50.998;7.098;2023-04-12T01:29:07;100011.25;;;7.38;64.56
76285;BME280;65096;50.998;7.098;2023-04-12T01:31:35;100011.28;;;7.41;62.72
76285;BME280;65096;50.998;7.098;2023-04-12T01:34:07;100007.88;;;7.45;64.00
76285;BME280;65096;50.998;7.098;2023-04-12T01:36:36;100008.84;;;7.56;63.49
76285;BME280;65096;50.998;7.098;2023-04-12T01:39:05;99998.50;;;7.47;64.50
76285;BME280;65096;50.998;7.098;2023-04-12T01:41:32;99999.31;;;7.40;64.64
76285;BME280;65096;50.998;7.098;2023-04-12T01:43:59;99995.00;;;7.37;64.84
76285;BME280;65096;50.998;7.098;2023-04-12T01:46:27;99988.16;;;7.35;63.43
76285;BME280;65096;50.998;7.098;2023-04-12T01:48:54;99983.06;;;7.44;63.41
76285;BME280;65096;50.998;7.098;2023-04-12T01:54:10;99947.97;;;7.38;63.14
76285;BME280;65096;50.998;7.098;2023-04-12T01:56:40;99955.72;;;7.41;65.00
76285;BME280;65096;50.998;7.098;2023-04-12T01:59:09;99948.75;;;7.25;63.88
76285;BME280;65096;50.998;7.098;2023-04-12T02:01:39;99943.75;;;7.45;64.93
76285;BME280;65096;50.998;7.098;2023-04-12T02:04:07;99935.09;;;7.29;66.27
76285;BME280;65096;50.998;7.098;2023-04-12T02:06:35;99935.06;;;7.23;65.98
76285;BME280;65096;50.998;7.098;2023-04-12T02:09:03;99924.00;;;7.30;65.80
76285;BME280;65096;50.998;7.098;2023-04-12T02:11:31;99925.72;;;7.31;64.45
76285;BME280;65096;50.998;7.098;2023-04-12T02:13:57;99917.09;;;7.23;65.33
76285;BME280;65096;50.998;7.098;2023-04-12T02:16:24;99905.03;;;7.09;66.85
76285;BME280;65096;50.998;7.098;2023-04-12T02:18:54;99897.47;;;7.22;65.63
76285;BME280;65096;50.998;7.098;2023-04-12T02:21:21;99892.00;;;6.83;67.50
76285;BME280;65096;50.998;7.098;2023-04-12T02:23:48;99883.72;;;7.14;66.26
76285;BME280;65096;50.998;7.098;2023-04-12T02:26:15;99864.06;;;7.18;64.63
76285;BME280;65096;50.998;7.098;2023-04-12T02:28:43;99878.47;;;6.98;66.49
76285;BME280;65096;50.998;7.098;2023-04-12T02:31:11;99883.72;;;7.14;66.66
76285;BME280;65096;50.998;7.098;2023-04-12T02:33:39;99879.31;;;6.97;66.68
76285;BME280;65096;50.998;7.098;2023-04-12T02:36:09;99863.97;;;7.03;66.98
76285;BME280;65096;50.998;7.098;2023-04-12T02:38:36;99869.91;;;6.97;65.73
76285;BME280;65096;50.998;7.098;2023-04-12T02:41:03;99855.41;;;6.99;67.33
76285;BME280;65096;50.998;7.098;2023-04-12T02:43:31;99862.75;;;6.60;68.71
76285;BME280;65096;50.998;7.098;2023-04-12T02:45:57;99853.53;;;6.74;67.97
76285;BME280;65096;50.998;7.098;2023-04-12T02:48:24;99857.78;;;6.77;67.75
76285;BME280;65096;50.998;7.098;2023-04-12T02:50:51;99845.84;;;6.76;67.28
76285;BME280;65096;50.998;7.098;2023-04-12T02:53:19;99828.69;;;6.69;68.17
76285;BME280;65096;50.998;7.098;2023-04-12T02:55:46;99816.03;;;6.85;67.37
76285;BME280;65096;50.998;7.098;2023-04-12T02:58:12;99813.03;;;6.33;69.93
76285;BME280;65096;50.998;7.098;2023-04-12T03:00:39;99803.00;;;6.58;68.24
76285;BME280;65096;50.998;7.098;2023-04-12T03:03:08;99794.50;;;6.65;67.98
76285;BME280;65096;50.998;7.098;2023-04-12T03:05:34;99794.28;;;6.40;69.85
76285;BME280;65096;50.998;7.098;2023-04-12T03:08:02;99788.41;;;6.50;69.37
76285;BME280;65096;50.998;7.098;2023-04-12T03:10:30;99772.19;;;6.49;69.52
76285;BME280;65096;50.998;7.098;2023-04-12T03:12:56;99773.84;;;6.43;69.57
76285;BME280;65096;50.998;7.098;2023-04-12T03:15:23;99771.22;;;6.33;70.31
76285;BME280;65096;50.998;7.098;2023-04-12T03:17:52;99765.31;;;6.41;70.27
76285;BME280;65096;50.998;7.098;2023-04-12T03:20:18;99761.72;;;6.20;70.78
76285;BME280;65096;50.998;7.098;2023-04-12T03:22:45;99746.53;;;6.42;69.79
76285;BME280;65096;50.998;7.098;2023-04-12T03:25:12;99732.66;;;6.18;70.23
76285;BME280;65096;50.998;7.098;2023-04-12T03:27:40;99738.00;;;6.44;69.54
76285;BME280;65096;50.998;7.098;2023-04-12T03:30:07;99727.75;;;6.46;68.83
76285;BME280;65096;50.998;7.098;2023-04-12T03:32:35;99729.47;;;6.42;69.58
76285;BME280;65096;50.998;7.098;2023-04-12T03:35:02;99716.53;;;6.25;70.55
76285;BME280;65096;50.998;7.098;2023-04-12T03:37:29;99711.25;;;6.12;70.85
76285;BME280;65096;50.998;7.098;2023-04-12T03:39:56;99701.84;;;6.09;70.97
76285;BME280;65096;50.998;7.098;2023-04-12T03:42:22;99698.66;;;6.33;69.84
76285;BME280;65096;50.998;7.098;2023-04-12T03:44:50;99697.47;;;5.93;71.81
76285;BME280;65096;50.998;7.098;2023-04-12T03:47:18;99677.94;;;6.07;71.33
76285;BME280;65096;50.998;7.098;2023-04-12T03:49:45;99672.09;;;6.17;70.22
76285;BME280;65096;50.998;7.098;2023-04-12T03:52:12;99666.81;;;6.01;70.94
76285;BME280;65096;50.998;7.098;2023-04-12T03:54:39;99669.41;;;6.04;70.87
76285;BME280;65096;50.998;7.098;2023-04-12T03:57:06;99662.41;;;5.85;71.89
76285;BME280;65096;50.998;7.098;2023-04-12T03:59:33;99654.91;;;6.04;71.13
76285;BME280;65096;50.998;7.098;2023-04-12T04:02:01;99646.31;;;5.99;71.49
76285;BME280;65096;50.998;7.098;2023-04-12T04:04:27;99627.59;;;6.00;71.29
76285;BME280;65096;50.998;7.098;2023-04-12T04:06:54;99625.22;;;6.21;70.37
76285;BME280;65096;50.998;7.098;2023-04-12T04:09:21;99614.66;;;5.84;72.01
76285;BME280;65096;50.998;7.098;2023-04-12T04:11:48;99612.16;;;5.93;71.85
76285;BME280;65096;50.998;7.098;2023-04-12T04:14:15;99601.88;;;5.85;71.62
76285;BME280;65096;50.998;7.098;2023-04-12T04:16:42;99597.69;;;5.98;70.99
76285;BME280;65096;50.998;7.098;2023-04-12T04:19:10;99585.78;;;5.98;70.97
76285;BME280;65096;50.998;7.098;2023-04-12T04:21:37;99600.03;;;5.66;72.38
76285;BME280;65096;50.998;7.098;2023-04-12T04:24:05;99591.81;;;6.09;70.66
76285;BME280;65096;50.998;7.098;2023-04-12T04:26:35;99584.91;;;5.98;71.31
76285;BME280;65096;50.998;7.098;2023-04-12T04:29:02;99575.47;;;5.88;71.55
76285;BME280;65096;50.998;7.098;2023-04-12T04:31:30;99566.94;;;5.89;71.24
76285;BME280;65096;50.998;7.098;2023-04-12T04:33:59;99558.44;;;5.93;71.65
76285;BME280;65096;50.998;7.098;2023-04-12T04:36:29;99562.59;;;5.77;72.28
76285;BME280;65096;50.998;7.098;2023-04-12T04:38:56;99563.63;;;6.00;71.26
76285;BME280;65096;50.998;7.098;2023-04-12T04:41:23;99551.72;;;6.04;71.24
76285;BME280;65096;50.998;7.098;2023-04-12T04:43:50;99544.84;;;5.98;71.10
76285;BME280;65096;50.998;7.098;2023-04-12T04:46:18;99549.19;;;6.14;70.29
76285;BME280;65096;50.998;7.098;2023-04-12T04:48:46;99547.50;;;6.13;70.83
76285;BME280;65096;50.998;7.098;2023-04-12T04:51:13;99546.63;;;6.11;70.96
76285;BME280;65096;50.998;7.098;2023-04-12T04:53:41;99552.50;;;5.98;71.51
76285;BME280;65096;50.998;7.098;2023-04-12T04:56:09;99546.69;;;6.20;70.31
76285;BME280;65096;50.998;7.098;2023-04-12T04:58:36;99544.84;;;5.98;71.18
76285;BME280;65096;50.998;7.098;2023-04-12T05:01:03;99539.75;;;6.04;71.28
76285;BME280;65096;50.998;7.098;2023-04-12T05:03:30;99542.28;;;5.98;71.88
76285;BME280;65096;50.998;7.098;2023-04-12T05:05:58;99538.94;;;6.13;71.55
76285;BME280;65096;50.998;7.098;2023-04-12T05:08:25;99532.16;;;6.16;71.35
76285;BME280;65096;50.998;7.098;2023-04-12T05:10:54;99533.06;;;6.21;71.29
76285;BME280;65096;50.998;7.098;2023-04-12T05:13:21;99532.22;;;6.28;70.33
76285;BME280;65096;50.998;7.098;2023-04-12T05:15:48;99533.91;;;6.25;71.01
76285;BME280;65096;50.998;7.098;2023-04-12T05:18:15;99526.16;;;6.14;71.49
76285;BME280;65096;50.998;7.098;2023-04-12T05:20:43;99510.84;;;6.19;71.85
76285;BME280;65096;50.998;7.098;2023-04-12T05:23:09;99505.53;;;5.87;73.14
76285;BME280;65096;50.998;7.098;2023-04-12T05:25:42;99514.00;;;5.82;73.86
76285;BME280;65096;50.998;7.098;2023-04-12T05:28:13;99502.03;;;5.72;73.88
76285;BME280;65096;50.998;7.098;2023-04-12T05:30:39;99501.34;;;6.01;73.14
76285;BME280;65096;50.998;7.098;2023-04-12T05:33:06;99491.81;;;5.75;74.34
76285;BME280;65096;50.998;7.098;2023-04-12T05:35:33;99489.41;;;5.97;73.37
76285;BME280;65096;50.998;7.098;2023-04-12T05:38:00;99480.00;;;5.96;72.82
76285;BME280;65096;50.998;7.098;2023-04-12T05:40:26;99474.75;;;5.75;74.26
76285;BME280;65096;50.998;7.098;2023-04-12T05:42:55;99472.25;;;5.83;73.85
76285;BME280;65096;50.998;7.098;2023-04-12T05:45:24;99464.63;;;5.90;73.74
76285;BME280;65096;50.998;7.098;2023-04-12T05:47:50;99464.59;;;5.87;73.89
76285;BME280;65096;50.998;7.098;2023-04-12T05:50:17;99459.47;;;5.81;74.46
76285;BME280;65096;50.998;7.098;2023-04-12T05:52:44;99454.47;;;6.04;72.89
76285;BME280;65096;50.998;7.098;2023-04-12T05:55:12;99450.19;;;6.07;72.88
76285;BME280;65096;50.998;7.098;2023-04-12T05:57:41;99452.75;;;6.12;72.81
76285;BME280;65096;50.998;7.098;2023-04-12T06:00:09;99456.28;;;6.23;72.84
76285;BME280;65096;50.998;7.098;2023-04-12T06:02:39;99442.56;;;6.13;73.38
76285;BME280;65096;50.998;7.098;2023-04-12T06:05:07;99445.91;;;6.00;73.53
76285;BME280;65096;50.998;7.098;2023-04-12T06:07:34;99442.34;;;5.70;74.89
76285;BME280;65096;50.998;7.098;2023-04-12T06:10:01;99443.28;;;5.88;74.42
76285;BME280;65096;50.998;7.098;2023-04-12T06:12:28;99434.84;;;6.07;73.76
76285;BME280;65096;50.998;7.098;2023-04-12T06:14:54;99435.59;;;5.84;74.74
76285;BME280;65096;50.998;7.098;2023-04-12T06:17:21;99425.38;;;5.87;74.50
76285;BME280;65096;50.998;7.098;2023-04-12T06:19:49;99426.16;;;5.72;75.04
76285;BME280;65096;50.998;7.098;2023-04-12T06:22:16;99435.50;;;5.67;76.03
76285;BME280;65096;50.998;7.098;2023-04-12T06:24:42;99414.25;;;5.83;74.93
76285;BME280;65096;50.998;7.098;2023-04-12T06:27:09;99414.34;;;5.95;75.18
76285;BME280;65096;50.998;7.098;2023-04-12T06:29:36;99410.09;;;5.99;74.65
76285;BME280;65096;50.998;7.098;2023-04-12T06:32:03;99416.03;;;5.96;74.69
76285;BME280;65096;50.998;7.098;2023-04-12T06:34:29;99404.13;;;6.12;74.79
76285;BME280;65096;50.998;7.098;2023-04-12T06:36:57;99404.13;;;6.03;74.88
76285;BME280;65096;50.998;7.098;2023-04-12T06:39:24;99397.25;;;5.90;75.29
76285;BME280;65096;50.998;7.098;2023-04-12T06:41:51;99381.06;;;5.94;75.55
76285;BME280;65096;50.998;7.098;2023-04-12T06:44:18;99383.66;;;6.04;74.72
76285;BME280;65096;50.998;7.098;2023-04-12T06:46:44;99373.44;;;6.12;74.21
76285;BME280;65096;50.998;7.098;2023-04-12T06:49:11;99372.63;;;6.17;75.17
76285;BME280;65096;50.998;7.098;2023-04-12T06:51:38;99370.13;;;6.33;74.23
76285;BME280;65096;50.998;7.098;2023-04-12T06:54:06;99375.22;;;6.25;73.63
76285;BME280;65096;50.998;7.098;2023-04-12T06:56:35;99362.34;;;6.11;74.79
76285;BME280;65096;50.998;7.098;2023-04-12T06:59:02;99355.59;;;6.25;74.47
76285;BME280;65096;50.998;7.098;2023-04-12T07:01:28;99342.72;;;6.06;75.85
76285;BME280;65096;50.998;7.098;2023-04-12T07:03:56;99345.31;;;6.16;75.35
76285;BME280;65096;50.998;7.098;2023-04-12T07:06:22;99342.72;;;6.07;75.32
76285;BME280;65096;50.998;7.098;2023-04-12T07:08:49;99334.25;;;6.28;74.77
76285;BME280;65096;50.998;7.098;2023-04-12T07:11:18;99330.84;;;6.23;75.39
76285;BME280;65096;50.998;7.098;2023-04-12T07:13:46;99337.72;;;6.38;75.60
76285;BME280;65096;50.998;7.098;2023-04-12T07:16:13;99325.75;;;6.30;75.45
76285;BME280;65096;50.998;7.098;2023-04-12T07:18:40;99330.00;;;6.24;75.31
76285;BME280;65096;50.998;7.098;2023-04-12T07:21:06;99310.38;;;6.33;74.87
76285;BME280;65096;50.998;7.098;2023-04-12T07:23:33;99308.69;;;6.37;75.04
76285;BME280;65096;50.998;7.098;2023-04-12T07:26:00;99305.28;;;6.49;74.48
76285;BME280;65096;50.998;7.098;2023-04-12T07:28:28;99300.94;;;6.14;76.13
76285;BME280;65096;50.998;7.098;2023-04-12T07:30:55;99300.94;;;6.16;75.75
76285;BME280;65096;50.998;7.098;2023-04-12T07:33:23;99301.84;;;6.31;75.21
76285;BME280;65096;50.998;7.098;2023-04-12T07:35:50;99289.06;;;6.45;74.75
76285;BME280;65096;50.998;7.098;2023-04-12T07:38:17;99283.06;;;6.48;75.57
76285;BME280;65096;50.998;7.098;2023-04-12T07:40:43;99285.66;;;6.29;75.99
76285;BME280;65096;50.998;7.098;2023-04-12T07:43:10;99286.47;;;6.30;76.03
76285;BME280;65096;50.998;7.098;2023-04-12T07:45:38;99271.13;;;6.28;75.56
76285;BME280;65096;50.998;7.098;2023-04-12T07:48:05;99267.72;;;6.49;74.84
76285;BME280;65096;50.998;7.098;2023-04-12T07:50:32;99264.28;;;6.44;75.62
76285;BME280;65096;50.998;7.098;2023-04-12T07:53:17;99271.13;;;6.56;75.51
76285;BME280;65096;50.998;7.098;2023-04-12T07:55:44;99263.44;;;6.59;75.06
76285;BME280;65096;50.998;7.098;2023-04-12T07:58:10;99252.34;;;6.51;75.74
76285;BME280;65096;50.998;7.098;2023-04-12T08:00:39;99249.75;;;6.73;74.61
76285;BME280;65096;50.998;7.098;2023-04-12T08:03:05;99258.28;;;6.89;74.84
76285;BME280;65096;50.998;7.098;2023-04-12T08:05:32;99250.56;;;7.04;73.78
76285;BME280;65096;50.998;7.098;2023-04-12T08:07:59;99250.56;;;7.01;73.70
76285;BME280;65096;50.998;7.098;2023-04-12T08:10:26;99250.59;;;6.84;74.74
76285;BME280;65096;50.998;7.098;2023-04-12T08:12:53;99254.88;;;6.85;74.99
76285;BME280;65096;50.998;7.098;2023-04-12T08:15:20;99257.44;;;6.82;74.14
76285;BME280;65096;50.998;7.098;2023-04-12T08:17:51;99252.28;;;6.96;74.85
76285;BME280;65096;50.998;7.098;2023-04-12T08:20:18;99247.16;;;6.96;74.21
76285;BME280;65096;50.998;7.098;2023-04-12T08:22:45;99233.50;;;6.88;74.90
76285;BME280;65096;50.998;7.098;2023-04-12T08:25:12;99236.91;;;6.96;74.73
76285;BME280;65096;50.998;7.098;2023-04-12T08:27:40;99244.59;;;6.91;74.87
76285;BME280;65096;50.998;7.098;2023-04-12T08:30:08;99248.00;;;7.01;74.44
76285;BME280;65096;50.998;7.098;2023-04-12T08:32:35;99243.66;;;7.24;73.54
76285;BME280;65096;50.998;7.098;2023-04-12T08:35:04;99236.75;;;7.39;72.94
76285;BME280;65096;50.998;7.098;2023-04-12T08:37:31;99238.47;;;7.39;73.37
76285;BME280;65096;50.998;7.098;2023-04-12T08:39:58;99240.28;;;7.14;74.35
76285;BME280;65096;50.998;7.098;2023-04-12T08:42:25;99230.81;;;7.33;74.59
76285;BME280;65096;50.998;7.098;2023-04-12T08:44:52;99226.50;;;7.38;74.15
76285;BME280;65096;50.998;7.098;2023-04-12T08:47:19;99223.91;;;7.42;74.65
76285;BME280;65096;50.998;7.098;2023-04-12T08:49:46;99227.41;;;7.28;75.29
76285;BME280;65096;50.998;7.098;2023-04-12T08:52:14;99232.41;;;7.53;73.68
76285;BME280;65096;50.998;7.098;2023-04-12T08:54:41;99226.47;;;7.44;74.54
76285;BME280;65096;50.998;7.098;2023-04-12T08:57:08;99229.00;;;7.56;74.11
76285;BME280;65096;50.998;7.098;2023-04-12T08:59:37;99229.78;;;7.65;73.53
76285;BME280;65096;50.998;7.098;2023-04-12T09:02:04;99231.44;;;7.80;73.61
76285;BME280;65096;50.998;7.098;2023-04-12T09:04:30;99222.81;;;7.90;73.68
76285;BME280;65096;50.998;7.098;2023-04-12T09:06:57;99226.25;;;7.89;73.53
76285;BME280;65096;50.998;7.098;2023-04-12T09:09:40;99216.75;;;8.00;73.83
76285;BME280;65096;50.998;7.098;2023-04-12T09:12:08;99215.88;;;8.03;73.51
76285;BME280;65096;50.998;7.098;2023-04-12T09:14:36;99214.38;;;7.73;74.47
76285;BME280;65096;50.998;7.098;2023-04-12T09:17:03;99212.53;;;7.93;73.99
76285;BME280;65096;50.998;7.098;2023-04-12T09:19:31;99206.63;;;7.81;74.86
76285;BME280;65096;50.998;7.098;2023-04-12T09:21:58;99202.31;;;7.87;73.90
76285;BME280;65096;50.998;7.098;2023-04-12T09:24:25;99198.88;;;7.91;74.04
76285;BME280;65096;50.998;7.098;2023-04-12T09:27:02;99207.28;;;8.11;73.67
76285;BME280;65096;50.998;7.098;2023-04-12T09:29:30;99215.97;;;7.91;73.75
76285;BME280;65096;50.998;7.098;2023-04-12T09:32:02;99208.28;;;7.89;74.08
76285;BME280;65096;50.998;7.098;2023-04-12T09:34:29;99196.25;;;7.99;73.96
76285;BME280;65096;50.998;7.098;2023-04-12T09:36:56;99202.31;;;7.87;74.64
76285;BME280;65096;50.998;7.098;2023-04-12T09:39:30;99191.88;;;8.10;73.74
76285;BME280;65096;50.998;7.098;2023-04-12T09:42:05;99196.03;;;8.26;73.06
76285;BME280;65096;50.998;7.098;2023-04-12T09:44:31;99199.31;;;8.41;72.65
76285;BME280;65096;50.998;7.098;2023-04-12T09:46:59;99193.47;;;8.24;73.00
76285;BME280;65096;50.998;7.098;2023-04-12T09:49:37;99199.28;;;8.44;72.79
76285;BME280;65096;50.998;7.098;2023-04-12T09:52:05;99195.75;;;8.56;72.00
76285;BME280;65096;50.998;7.098;2023-04-12T09:54:37;99197.53;;;8.48;73.33
76285;BME280;65096;50.998;7.098;2023-04-12T09:57:06;99187.28;;;8.45;73.68
76285;BME280;65096;50.998;7.098;2023-04-12T09:59:35;99166.00;;;8.32;72.78
76285;BME280;65096;50.998;7.098;2023-04-12T10:02:06;99193.28;;;8.45;73.57
76285;BME280;65096;50.998;7.098;2023-04-12T10:04:35;99192.38;;;8.49;72.71
76285;BME280;65096;50.998;7.098;2023-04-12T10:07:03;99189.75;;;8.57;72.71
76285;BME280;65096;50.998;7.098;2023-04-12T10:09:30;99186.50;;;8.38;73.26
76285;BME280;65096;50.998;7.098;2023-04-12T10:11:57;99174.41;;;8.49;72.99
76285;BME280;65096;50.998;7.098;2023-04-12T10:14:28;99176.09;;;8.53;73.25
76285;BME280;65096;50.998;7.098;2023-04-12T10:16:56;99166.59;;;8.61;73.59
76285;BME280;65096;50.998;7.098;2023-04-12T10:19:24;99160.56;;;8.62;73.97
76285;BME280;65096;50.998;7.098;2023-04-12T10:21:52;99158.66;;;8.79;73.63
76285;BME280;65096;50.998;7.098;2023-04-12T10:24:20;99158.56;;;8.90;73.58
76285;BME280;65096;50.998;7.098;2023-04-12T10:26:47;99155.78;;;9.08;73.34
76285;BME280;65096;50.998;7.098;2023-04-12T10:29:23;99155.75;;;9.12;73.49
76285;BME280;65096;50.998;7.098;2023-04-12T10:31:52;99153.94;;;9.19;72.30
76285;BME280;65096;50.998;7.098;2023-04-12T10:34:23;99143.72;;;9.11;73.24
76285;BME280;65096;50.998;7.098;2023-04-12T10:36:51;99145.47;;;9.08;73.69
76285;BME280;65096;50.998;7.098;2023-04-12T10:39:33;99141.91;;;9.21;72.56
76285;BME280;65096;50.998;7.098;2023-04-12T10:42:21;99132.31;;;9.32;72.25
76285;BME280;65096;50.998;7.098;2023-04-12T10:44:49;99138.31;;;9.33;72.00
76285;BME280;65096;50.998;7.098;2023-04-12T10:50:21;99138.84;;;9.56;71.30
76285;BME280;65096;50.998;7.098;2023-04-12T10:53:19;99139.59;;;9.64;71.10
76285;BME280;65096;50.998;7.098;2023-04-12T10:55:47;99140.41;;;9.66;71.76
76285;BME280;65096;50.998;7.098;2023-04-12T11:01:10;99147.13;;;9.76;70.81
76285;BME280;65096;50.998;7.098;2023-04-12T11:04:04;99149.56;;;9.85;70.41
76285;BME280;65096;50.998;7.098;2023-04-12T11:06:41;99154.72;;;9.85;70.31
76285;BME280;65096;50.998;7.098;2023-04-12T11:09:16;99152.03;;;9.91;70.80
76285;BME280;65096;50.998;7.098;2023-04-12T11:11:43;99141.78;;;9.88;70.76
76285;BME280;65096;50.998;7.098;2023-04-12T11:14:12;99145.25;;;9.85;71.52
76285;BME280;65096;50.998;7.098;2023-04-12T11:19:40;99182.94;;;9.91;71.41
76285;BME280;65096;50.998;7.098;2023-04-12T11:22:10;99172.72;;;9.86;70.27
76285;BME280;65096;50.998;7.098;2023-04-12T11:24:37;99176.38;;;9.72;69.06
76285;BME280;65096;50.998;7.098;2023-04-12T11:27:04;99184.91;;;9.72;69.15
76285;BME280;65096;50.998;7.098;2023-04-12T11:29:31;99185.03;;;9.65;69.58
76285;BME280;65096;50.998;7.098;2023-04-12T11:32:01;99191.13;;;9.59;70.01
76285;BME280;65096;50.998;7.098;2023-04-12T11:34:31;99181.63;;;9.63;69.79
76285;BME280;65096;50.998;7.098;2023-04-12T11:36:58;99178.09;;;9.70;70.24
76285;BME280;65096;50.998;7.098;2023-04-12T11:39:26;99184.09;;;9.72;69.69
76285;BME280;65096;50.998;7.098;2023-04-12T11:41:54;99178.91;;;9.73;70.09
76285;BME280;65096;50.998;7.098;2023-04-12T11:44:21;99167.78;;;9.71;69.82
76285;BME280;65096;50.998;7.098;2023-04-12T11:46:48;99178.81;;;9.79;69.95
76285;BME280;65096;50.998;7.098;2023-04-12T11:49:15;99180.47;;;9.85;70.00
76285;BME280;65096;50.998;7.098;2023-04-12T11:51:42;99182.09;;;9.89;70.03
76285;BME280;65096;50.998;7.098;2023-04-12T11:54:10;99187.13;;;9.96;69.90
76285;BME280;65096;50.998;7.098;2023-04-12T11:56:39;99190.53;;;9.98;69.91
76285;BME280;65096;50.998;7.098;2023-04-12T11:59:06;99189.59;;;10.04;70.44
76285;BME280;65096;50.998;7.098;2023-04-12T12:01:33;99189.56;;;10.07;70.60
76285;BME280;65096;50.998;7.098;2023-04-12T12:04:01;99177.47;;;10.12;69.82
76285;BME280;65096;50.998;7.098;2023-04-12T12:06:28;99181.69;;;10.14;68.51
76285;BME280;65096;50.998;7.098;2023-04-12T12:08:55;99187.63;;;10.19;68.78
76285;BME280;65096;50.998;7.098;2023-04-12T12:11:23;99190.19;;;10.19;68.80
76285;BME280;65096;50.998;7.098;2023-04-12T12:13:53;99184.91;;;10.27;68.00
76285;BME280;65096;50.998;7.098;2023-04-12T12:16:23;99180.59;;;10.29;67.63
76285;BME280;65096;50.998;7.098;2023-04-12T12:18:51;99184.06;;;10.28;66.21
76285;BME280;65096;50.998;7.098;2023-04-12T12:21:18;99195.13;;;10.31;65.45
76285;BME280;65096;50.998;7.098;2023-04-12T12:23:46;99179.88;;;10.21;66.09
76285;BME280;65096;50.998;7.098;2023-04-12T12:26:19;99201.22;;;10.29;65.55
76285;BME280;65096;50.998;7.098;2023-04-12T12:28:49;99195.13;;;10.36;65.36
76285;BME280;65096;50.998;7.098;2023-04-12T12:31:19;99183.06;;;10.36;65.21
76285;BME280;65096;50.998;7.098;2023-04-12T12:33:46;99197.78;;;10.27;65.56
76285;BME280;65096;50.998;7.098;2023-04-12T12:36:17;99192.56;;;10.31;65.72
76285;BME280;65096;50.998;7.098;2023-04-12T12:38:45;99189.06;;;10.37;65.46
76285;BME280;65096;50.998;7.098;2023-04-12T12:41:17;99184.69;;;10.42;65.90
76285;BME280;65096;50.998;7.098;2023-04-12T12:43:44;99185.53;;;10.44;63.49
76285;BME280;65096;50.998;7.098;2023-04-12T12:46:11;99185.34;;;10.54;63.94
76285;BME280;65096;50.998;7.098;2023-04-12T12:48:40;99174.09;;;10.57;62.90
76285;BME280;65096;50.998;7.098;2023-04-12T12:51:07;99173.13;;;10.64;64.01
76285;BME280;65096;50.998;7.098;2023-04-12T12:53:34;99164.47;;;10.67;63.68
76285;BME280;65096;50.998;7.098;2023-04-12T12:56:01;99174.72;;;10.71;62.09
76285;BME280;65096;50.998;7.098;2023-04-12T12:58:28;99170.22;;;10.82;60.27
76285;BME280;65096;50.998;7.098;2023-04-12T13:00:55;99165.63;;;10.96;60.59
76285;BME280;65096;50.998;7.098;2023-04-12T13:03:22;99167.16;;;11.06;58.89
76285;BME280;65096;50.998;7.098;2023-04-12T13:05:50;99155.81;;;11.13;58.77
76285;BME280;65096;50.998;7.098;2023-04-12T13:08:17;99159.66;;;11.34;58.26
76285;BME280;65096;50.998;7.098;2023-04-12T13:10:43;99163.66;;;11.50;59.50
76285;BME280;65096;50.998;7.098;2023-04-12T13:13:10;99163.53;;;11.56;60.18
76285;BME280;65096;50.998;7.098;2023-04-12T13:15:37;99165.56;;;11.80;59.24
76285;BME280;65096;50.998;7.098;2023-04-12T13:18:04;99167.91;;;11.90;58.25
76285;BME280;65096;50.998;7.098;2023-04-12T13:20:31;99162.50;;;11.99;53.50
76285;BME280;65096;50.998;7.098;2023-04-12T13:23:00;99163.56;;;11.92;53.91
76285;BME280;65096;50.998;7.098;2023-04-12T13:25:27;99167.81;;;11.93;52.46